createdAt,value
2023-04-29T00:00:09.866Z,13.46
2023-04-29T00:02:36.861Z,13.47
2023-04-29T00:05:05.320Z,13.47
2023-04-29T00:07:32.548Z,13.48
2023-04-29T00:09:59.502Z,13.48
2023-04-29T00:12:26.371Z,13.48
2023-04-29T00:14:53.068Z,13.47
2023-04-29T00:17:19.578Z,13.46
2023-04-29T00:19:46.072Z,13.44
2023-04-29T00:22:12.603Z,13.44
2023-04-29T00:24:39.082Z,13.43
2023-04-29T00:27:06.672Z,13.43
2023-04-29T00:29:33.186Z,13.42
2023-04-29T00:32:00.024Z,13.42
2023-04-29T00:34:26.734Z,13.42
2023-04-29T00:36:53.289Z,13.41
2023-04-29T00:39:19.791Z,13.39
2023-04-29T00:41:46.366Z,13.41
2023-04-29T00:44:13.477Z,13.39
2023-04-29T00:46:40.164Z,13.38
2023-04-29T00:49:08.310Z,13.37
2023-04-29T00:51:36.248Z,13.35
2023-04-29T00:54:04.484Z,13.36
2023-04-29T00:56:32.269Z,13.37
2023-04-29T00:58:59.601Z,13.36
2023-04-29T01:01:26.427Z,13.37
2023-04-29T01:03:53.198Z,13.37
2023-04-29T01:06:49.648Z,13.38
2023-04-29T01:09:57.017Z,13.37
2023-04-29T01:12:41.565Z,13.36
2023-04-29T01:15:23.259Z,13.36
2023-04-29T01:18:00.884Z,13.36
2023-04-29T01:20:28.341Z,13.35
2023-04-29T01:22:54.807Z,13.34
2023-04-29T01:25:21.331Z,13.34
2023-04-29T01:28:08.813Z,13.32
2023-04-29T01:31:01.276Z,13.31
2023-04-29T01:34:07.210Z,13.31
2023-04-29T01:36:57.304Z,13.31
2023-04-29T01:39:46.435Z,13.30
2023-04-29T01:42:28.152Z,13.30
2023-04-29T01:44:57.153Z,13.30
2023-04-29T01:47:24.798Z,13.30
2023-04-29T01:49:51.892Z,13.30
2023-04-29T01:52:18.539Z,13.29
2023-04-29T01:54:46.150Z,13.30
2023-04-29T01:57:12.987Z,13.28
2023-04-29T01:59:40.163Z,13.29
2023-04-29T02:02:06.684Z,13.27
2023-04-29T02:04:34.507Z,13.29
2023-04-29T02:07:01.643Z,13.26
2023-04-29T02:09:28.141Z,13.27
2023-04-29T02:11:54.697Z,13.27
2023-04-29T02:14:21.188Z,13.27
2023-04-29T02:16:47.800Z,13.28
2023-04-29T02:19:14.350Z,13.30
2023-04-29T02:21:41.020Z,13.29
2023-04-29T02:24:07.564Z,13.28
2023-04-29T02:26:38.241Z,13.28
2023-04-29T02:29:04.908Z,13.28
2023-04-29T02:31:31.584Z,13.27
2023-04-29T02:33:58.161Z,13.27
2023-04-29T02:36:24.771Z,13.26
2023-04-29T02:38:51.469Z,13.24
2023-04-29T02:41:18.288Z,13.25
2023-04-29T02:43:45.045Z,13.24
2023-04-29T02:46:12.395Z,13.24
2023-04-29T02:48:39.276Z,13.24
2023-04-29T02:51:06.602Z,13.23
2023-04-29T02:53:33.315Z,13.24
2023-04-29T02:55:59.896Z,13.23
2023-04-29T02:58:26.432Z,13.23
2023-04-29T03:00:53.138Z,13.25
2023-04-29T03:03:19.846Z,13.24
2023-04-29T03:05:46.545Z,13.23
2023-04-29T03:08:13.057Z,13.23
2023-04-29T03:10:41.475Z,13.24
2023-04-29T03:13:08.359Z,13.22
2023-04-29T03:15:34.865Z,13.23
2023-04-29T03:18:03.999Z,13.24
2023-04-29T03:20:30.698Z,13.24
2023-04-29T03:22:57.263Z,13.25
2023-04-29T03:25:24.043Z,13.23
2023-04-29T03:27:50.539Z,13.24
2023-04-29T03:30:17.661Z,13.22
2023-04-29T03:32:44.432Z,13.21
2023-04-29T03:35:14.127Z,13.21
2023-04-29T03:37:44.341Z,13.19
2023-04-29T03:40:12.044Z,13.22
2023-04-29T03:42:38.577Z,13.24
2023-04-29T03:45:06.073Z,13.26
2023-04-29T03:47:32.605Z,13.26
2023-04-29T03:49:59.070Z,13.28
2023-04-29T03:52:25.819Z,13.29
2023-04-29T03:54:52.304Z,13.30
2023-04-29T03:57:18.775Z,13.31
2023-04-29T03:59:45.633Z,13.28
2023-04-29T04:02:12.306Z,13.29
2023-04-29T04:04:39.245Z,13.29
2023-04-29T04:07:06.122Z,13.30
2023-04-29T04:09:33.563Z,13.29
2023-04-29T04:12:00.970Z,13.31
2023-04-29T04:14:27.680Z,13.30
2023-04-29T04:16:54.739Z,13.30
2023-04-29T04:19:21.223Z,13.30
2023-04-29T04:21:47.701Z,13.30
2023-04-29T04:24:14.274Z,13.29
2023-04-29T04:26:42.222Z,13.27
2023-04-29T04:29:08.783Z,13.28
2023-04-29T04:31:36.754Z,13.27
2023-04-29T04:34:03.379Z,13.26
2023-04-29T04:36:29.925Z,13.24
2023-04-29T04:38:56.436Z,13.24
2023-04-29T04:41:22.915Z,13.24
2023-04-29T04:43:49.560Z,13.24
2023-04-29T04:46:16.904Z,13.24
2023-04-29T04:48:43.824Z,13.23
2023-04-29T04:51:10.807Z,13.24
2023-04-29T04:53:37.579Z,13.23
2023-04-29T04:56:04.931Z,13.22
2023-04-29T04:58:32.595Z,13.22
2023-04-29T05:01:00.369Z,13.22
2023-04-29T05:03:27.030Z,13.21
2023-04-29T05:05:57.474Z,13.22
2023-04-29T05:08:24.668Z,13.22
2023-04-29T05:10:51.642Z,13.21
2023-04-29T05:13:18.963Z,13.22
2023-04-29T05:15:45.872Z,13.22
2023-04-29T05:18:12.541Z,13.20
2023-04-29T05:20:39.043Z,13.21
2023-04-29T05:23:05.673Z,13.21
2023-04-29T05:25:32.223Z,13.19
2023-04-29T05:27:58.729Z,13.23
2023-04-29T05:30:25.338Z,13.23
2023-04-29T05:32:51.958Z,13.23
2023-04-29T05:35:18.549Z,13.23
2023-04-29T05:37:45.051Z,13.24
2023-04-29T05:40:12.078Z,13.25
2023-04-29T05:42:38.556Z,13.24
2023-04-29T05:45:05.747Z,13.22
2023-04-29T05:47:32.302Z,13.21
2023-04-29T05:49:58.947Z,13.22
2023-04-29T05:52:25.528Z,13.23
2023-04-29T05:54:52.178Z,13.22
2023-04-29T05:57:18.682Z,13.22
2023-04-29T05:59:45.229Z,13.22
2023-04-29T06:02:12.483Z,13.23
2023-04-29T06:04:41.541Z,13.24
2023-04-29T06:07:09.327Z,13.24
2023-04-29T06:09:36.678Z,13.24
2023-04-29T06:12:03.563Z,13.24
2023-04-29T06:14:30.143Z,13.23
2023-04-29T06:16:56.676Z,13.24
2023-04-29T06:19:23.625Z,13.24
2023-04-29T06:21:50.482Z,13.26
2023-04-29T06:24:17.116Z,13.28
2023-04-29T06:26:43.883Z,13.28
2023-04-29T06:29:10.562Z,13.28
2023-04-29T06:31:37.121Z,13.30
2023-04-29T06:34:03.715Z,13.31
2023-04-29T06:36:30.253Z,13.30
2023-04-29T06:38:56.754Z,13.31
2023-04-29T06:41:23.764Z,13.30
2023-04-29T06:43:50.244Z,13.29
2023-04-29T06:46:17.199Z,13.31
2023-04-29T06:48:44.264Z,13.32
2023-04-29T06:51:11.206Z,13.34
2023-04-29T06:53:37.720Z,13.35
2023-04-29T06:56:05.470Z,13.37
2023-04-29T06:58:31.966Z,13.40
2023-04-29T07:00:58.497Z,13.44
2023-04-29T07:03:25.433Z,13.47
2023-04-29T07:05:52.083Z,13.46
2023-04-29T07:08:18.574Z,13.53
2023-04-29T07:10:53.403Z,13.57
2023-04-29T07:13:19.915Z,13.60
2023-04-29T07:15:46.420Z,13.64
2023-04-29T07:18:13.012Z,13.66
2023-04-29T07:20:39.521Z,13.66
2023-04-29T07:23:06.069Z,13.68
2023-04-29T07:25:33.135Z,13.72
2023-04-29T07:27:59.635Z,13.73
2023-04-29T07:30:26.153Z,13.73
2023-04-29T07:32:52.688Z,13.75
2023-04-29T07:35:19.202Z,13.78
2023-04-29T07:37:45.899Z,13.81
2023-04-29T07:40:12.642Z,13.83
2023-04-29T07:42:39.162Z,13.83
2023-04-29T07:45:06.378Z,13.86
2023-04-29T07:47:32.889Z,13.88
2023-04-29T07:49:59.494Z,13.90
2023-04-29T07:52:25.967Z,13.91
2023-04-29T07:54:52.772Z,13.94
2023-04-29T07:57:19.479Z,13.96
2023-04-29T07:59:46.002Z,13.97
2023-04-29T08:02:12.588Z,13.99
2023-04-29T08:04:41.625Z,14.03
2023-04-29T08:07:08.403Z,14.06
2023-04-29T08:09:34.897Z,14.09
2023-04-29T08:12:02.128Z,14.12
2023-04-29T08:14:28.698Z,14.14
2023-04-29T08:16:55.733Z,14.16
2023-04-29T08:19:22.282Z,14.18
2023-04-29T08:21:48.778Z,14.19
2023-04-29T08:24:15.566Z,14.22
2023-04-29T08:26:42.454Z,14.20
2023-04-29T08:29:09.157Z,14.22
2023-04-29T08:31:36.237Z,14.23
2023-04-29T08:34:02.824Z,14.24
2023-04-29T08:36:30.076Z,14.24
2023-04-29T08:38:56.634Z,14.24
2023-04-29T08:41:23.357Z,14.24
2023-04-29T08:43:49.863Z,14.23
2023-04-29T08:46:18.081Z,14.24
2023-04-29T08:48:45.867Z,14.25
2023-04-29T08:51:16.077Z,14.26
2023-04-29T08:53:42.730Z,14.25
2023-04-29T08:56:16.770Z,14.26
2023-04-29T08:58:44.115Z,14.26
2023-04-29T09:01:11.025Z,14.27
2023-04-29T09:03:46.106Z,14.29
2023-04-29T09:06:14.350Z,14.28
2023-04-29T09:08:41.445Z,14.29
2023-04-29T09:11:12.661Z,14.27
2023-04-29T09:13:39.246Z,14.29
2023-04-29T09:16:11.802Z,14.28
2023-04-29T09:18:49.155Z,14.29
2023-04-29T09:21:23.120Z,14.29
2023-04-29T09:23:51.967Z,14.27
2023-04-29T09:26:19.390Z,14.28
2023-04-29T09:28:47.580Z,14.29
2023-04-29T09:31:14.479Z,14.30
2023-04-29T09:33:55.351Z,14.31
2023-04-29T09:36:58.977Z,14.30
2023-04-29T09:39:26.286Z,14.30
2023-04-29T09:41:52.798Z,14.31
2023-04-29T09:44:22.425Z,14.30
2023-04-29T09:46:57.496Z,14.31
2023-04-29T09:49:25.042Z,14.32
2023-04-29T09:51:55.833Z,14.32
2023-04-29T09:54:24.241Z,14.32
2023-04-29T09:56:52.464Z,14.32
2023-04-29T09:59:23.626Z,14.32
2023-04-29T10:01:55.193Z,14.32
2023-04-29T10:04:23.854Z,14.33
2023-04-29T10:06:52.287Z,14.32
2023-04-29T10:09:20.402Z,14.34
2023-04-29T10:11:51.589Z,14.33
2023-04-29T10:14:20.040Z,14.34
2023-04-29T10:16:54.530Z,14.34
2023-04-29T10:19:35.642Z,14.36
2023-04-29T10:22:08.942Z,14.38
2023-04-29T10:24:40.084Z,14.39
2023-04-29T10:27:08.995Z,14.41
2023-04-29T10:29:37.668Z,14.43
2023-04-29T10:32:07.608Z,14.44
2023-04-29T10:34:36.858Z,14.45
2023-04-29T10:37:03.618Z,14.46
2023-04-29T10:40:10.985Z,14.47
2023-04-29T10:42:49.225Z,14.47
2023-04-29T10:45:27.599Z,14.47
2023-04-29T10:48:05.656Z,14.49
2023-04-29T10:50:43.695Z,14.51
2023-04-29T10:53:10.195Z,14.51
2023-04-29T10:55:38.047Z,14.53
2023-04-29T10:58:06.074Z,14.56
2023-04-29T11:00:34.701Z,14.61
2023-04-29T11:03:05.175Z,14.70
2023-04-29T11:05:36.796Z,14.80
2023-04-29T11:08:29.426Z,15.00
2023-04-29T11:11:04.016Z,15.26
2023-04-29T11:13:32.679Z,15.55
2023-04-29T11:16:10.043Z,15.82
2023-04-29T11:18:57.388Z,16.08
2023-04-29T11:21:23.872Z,16.42
2023-04-29T11:23:52.168Z,16.71
2023-04-29T11:26:20.092Z,17.08
2023-04-29T11:28:48.275Z,17.23
2023-04-29T11:31:14.835Z,17.31
2023-04-29T11:33:41.417Z,17.35
2023-04-29T11:36:09.512Z,17.45
2023-04-29T11:38:39.910Z,17.52
2023-04-29T11:41:06.601Z,17.46
2023-04-29T11:43:33.137Z,17.44
2023-04-29T11:45:59.704Z,17.51
2023-04-29T11:48:26.695Z,17.50
2023-04-29T11:50:59.971Z,17.64
2023-04-29T11:53:28.052Z,17.89
2023-04-29T11:55:55.651Z,17.94
2023-04-29T11:58:22.509Z,18.26
2023-04-29T12:00:49.796Z,18.11
2023-04-29T12:03:19.372Z,17.91
2023-04-29T12:05:48.514Z,17.68
2023-04-29T12:08:15.225Z,17.50
2023-04-29T12:10:41.848Z,17.39
2023-04-29T12:13:10.208Z,17.26
2023-04-29T12:15:38.902Z,17.15
2023-04-29T12:18:07.220Z,17.04
2023-04-29T12:20:33.816Z,16.96
2023-04-29T12:23:17.982Z,16.87
2023-04-29T12:25:59.502Z,16.82
2023-04-29T12:28:27.185Z,16.76
2023-04-29T12:30:54.420Z,16.71
2023-04-29T12:33:24.788Z,16.67
2023-04-29T12:35:52.524Z,16.62
2023-04-29T12:38:24.338Z,16.57
2023-04-29T12:40:51.165Z,16.59
2023-04-29T12:43:18.816Z,16.54
2023-04-29T12:45:45.190Z,16.50
2023-04-29T12:48:22.169Z,16.46
2023-04-29T12:50:58.468Z,16.44
2023-04-29T12:53:25.493Z,16.49
2023-04-29T12:55:52.352Z,16.52
2023-04-29T12:58:19.120Z,16.54
2023-04-29T13:00:46.091Z,16.52
2023-04-29T13:03:13.356Z,16.51
2023-04-29T13:05:40.730Z,16.48
2023-04-29T13:08:08.148Z,16.47
2023-04-29T13:10:35.627Z,16.44
2023-04-29T13:13:02.570Z,16.45
2023-04-29T13:15:29.173Z,16.45
2023-04-29T13:17:55.783Z,16.46
2023-04-29T13:20:22.351Z,16.44
2023-04-29T13:22:48.883Z,16.42
2023-04-29T13:25:16.455Z,16.40
2023-04-29T13:27:44.029Z,16.37
2023-04-29T13:30:11.106Z,16.34
2023-04-29T13:32:44.996Z,16.30
2023-04-29T13:35:16.030Z,16.24
2023-04-29T13:37:42.745Z,16.22
2023-04-29T13:40:13.543Z,16.18
2023-04-29T13:42:49.762Z,16.17
2023-04-29T13:45:17.138Z,16.15
2023-04-29T13:48:03.097Z,16.14
2023-04-29T13:58:41.053Z,16.08
2023-04-29T14:01:17.114Z,16.06
2023-04-29T14:03:35.599Z,16.08
2023-04-29T14:06:02.659Z,16.10
2023-04-29T14:08:29.174Z,16.08
2023-04-29T14:10:55.661Z,16.08
2023-04-29T14:13:22.390Z,16.06
2023-04-29T14:15:49.028Z,16.03
2023-04-29T14:18:15.618Z,16.04
2023-04-29T14:20:42.125Z,16.02
2023-04-29T14:23:08.624Z,16.02
2023-04-29T14:25:35.104Z,16.00
2023-04-29T14:28:01.586Z,15.99
2023-04-29T14:30:28.117Z,15.98
2023-04-29T14:32:54.610Z,15.96
2023-04-29T14:35:21.218Z,15.93
2023-04-29T14:37:48.470Z,15.92
2023-04-29T14:40:14.954Z,15.94
2023-04-29T14:42:41.541Z,15.94
2023-04-29T14:45:08.893Z,15.94
2023-04-29T14:47:35.451Z,15.93
2023-04-29T14:50:02.282Z,15.93
2023-04-29T14:52:28.759Z,15.93
2023-04-29T14:54:55.596Z,15.93
2023-04-29T14:57:22.334Z,15.92
2023-04-29T14:59:49.786Z,15.94
2023-04-29T15:02:16.247Z,15.93
2023-04-29T15:04:46.028Z,15.93
2023-04-29T15:07:16.238Z,15.93
2023-04-29T15:09:42.836Z,15.92
2023-04-29T15:12:09.633Z,15.94
2023-04-29T15:14:36.387Z,15.94
2023-04-29T15:17:03.329Z,15.94
2023-04-29T15:19:29.819Z,15.94
2023-04-29T15:21:56.315Z,15.94
2023-04-29T15:24:23.024Z,15.94
2023-04-29T15:26:51.678Z,15.93
2023-04-29T15:29:18.149Z,15.95
2023-04-29T15:31:44.735Z,15.95
2023-04-29T15:34:11.230Z,15.95
2023-04-29T15:36:37.758Z,15.92
2023-04-29T15:39:04.244Z,15.92
2023-04-29T15:41:30.899Z,15.91
2023-04-29T15:43:57.550Z,15.91
2023-04-29T15:46:24.167Z,15.92
2023-04-29T15:48:50.859Z,15.93
2023-04-29T15:51:17.983Z,15.95
2023-04-29T15:53:44.704Z,15.93
2023-04-29T15:56:11.462Z,15.92
2023-04-29T15:58:38.028Z,15.91
2023-04-29T16:01:07.708Z,15.89
2023-04-29T16:03:34.741Z,15.88
2023-04-29T16:06:01.389Z,15.86
2023-04-29T16:08:28.014Z,15.85
2023-04-29T16:10:54.523Z,15.84
2023-04-29T16:13:21.020Z,15.82
2023-04-29T16:15:47.635Z,15.82
2023-04-29T16:18:14.671Z,15.82
2023-04-29T16:20:41.947Z,15.81
2023-04-29T16:23:08.655Z,15.81
2023-04-29T16:25:35.271Z,15.80
2023-04-29T16:28:02.148Z,15.79
2023-04-29T16:30:28.643Z,15.78
2023-04-29T16:32:55.175Z,15.77
2023-04-29T16:35:26.559Z,15.74
2023-04-29T16:37:53.620Z,15.75
2023-04-29T16:40:20.174Z,15.77
2023-04-29T16:42:46.939Z,15.76
2023-04-29T16:45:14.682Z,15.78
2023-04-29T16:47:41.983Z,15.77
2023-04-29T16:50:09.426Z,15.77
2023-04-29T16:52:35.904Z,15.76
2023-04-29T16:55:03.765Z,15.78
2023-04-29T16:57:30.433Z,15.77
2023-04-29T16:59:56.944Z,15.78
2023-04-29T17:02:23.644Z,15.78
2023-04-29T17:04:52.050Z,15.78
2023-04-29T17:07:20.279Z,15.78
2023-04-29T17:09:49.646Z,15.76
2023-04-29T17:12:16.229Z,15.76
2023-04-29T17:14:42.858Z,15.75
2023-04-29T17:17:09.667Z,15.73
2023-04-29T17:19:36.212Z,15.73
2023-04-29T17:22:02.695Z,15.73
2023-04-29T17:24:29.616Z,15.73
2023-04-29T17:26:56.150Z,15.72
2023-04-29T17:29:22.648Z,15.70
2023-04-29T17:31:54.888Z,15.73
2023-04-29T17:34:25.376Z,15.72
2023-04-29T17:36:53.518Z,15.72
2023-04-29T17:39:20.250Z,15.74
2023-04-29T17:41:46.784Z,15.75
2023-04-29T17:44:13.270Z,15.74
2023-04-29T17:46:40.618Z,15.74
2023-04-29T17:49:07.102Z,15.74
2023-04-29T17:51:33.596Z,15.73
2023-04-29T17:54:01.339Z,15.72
2023-04-29T17:56:27.895Z,15.71
2023-04-29T17:58:54.415Z,15.69
2023-04-29T18:01:20.919Z,15.69
2023-04-29T18:03:47.488Z,15.68
2023-04-29T18:06:14.034Z,15.68
2023-04-29T18:08:41.406Z,15.68
2023-04-29T18:11:09.775Z,15.69
2023-04-29T18:13:36.267Z,15.69
2023-04-29T18:16:02.763Z,15.69
2023-04-29T18:18:29.346Z,15.68
2023-04-29T18:20:56.378Z,15.68
2023-04-29T18:23:22.924Z,15.68
2023-04-29T18:25:49.518Z,15.67
2023-04-29T18:28:24.718Z,15.65
2023-04-29T18:30:52.411Z,15.65
2023-04-29T18:33:19.271Z,15.64
2023-04-29T18:35:46.034Z,15.62
2023-04-29T18:38:16.173Z,15.60
2023-04-29T18:40:43.504Z,15.60
2023-04-29T18:43:11.854Z,15.58
2023-04-29T18:45:38.875Z,15.55
2023-04-29T18:48:06.909Z,15.51
2023-04-29T18:50:33.784Z,15.49
2023-04-29T18:53:00.370Z,15.44
2023-04-29T18:55:27.269Z,15.40
2023-04-29T18:57:54.620Z,15.41
2023-04-29T19:00:21.818Z,15.39
2023-04-29T19:02:48.537Z,15.39
2023-04-29T19:05:15.700Z,15.39
2023-04-29T19:07:42.307Z,15.37
2023-04-29T19:10:09.492Z,15.37
2023-04-29T19:12:35.999Z,15.35
2023-04-29T19:15:02.530Z,15.34
2023-04-29T19:17:29.124Z,15.33
2023-04-29T19:19:55.998Z,15.31
2023-04-29T19:22:22.798Z,15.26
2023-04-29T19:24:49.306Z,15.26
2023-04-29T19:27:16.031Z,15.25
2023-04-29T19:29:42.614Z,15.22
2023-04-29T19:32:09.098Z,15.19
2023-04-29T19:34:36.406Z,15.20
2023-04-29T19:37:03.335Z,15.18
2023-04-29T19:39:30.102Z,15.18
2023-04-29T19:41:57.871Z,15.15
2023-04-29T19:44:24.287Z,15.15
2023-04-29T19:46:51.751Z,15.15
2023-04-29T19:49:18.416Z,15.14
2023-04-29T19:51:45.002Z,15.12
2023-04-29T19:54:11.986Z,15.11
2023-04-29T19:56:38.462Z,15.09
2023-04-29T19:59:05.065Z,15.08
2023-04-29T20:01:31.582Z,15.08
2023-04-29T20:03:58.059Z,15.07
2023-04-29T20:06:24.658Z,15.08
2023-04-29T20:08:51.455Z,15.07
2023-04-29T20:11:17.944Z,15.08
2023-04-29T20:13:45.829Z,15.07
2023-04-29T20:16:12.688Z,15.08
2023-04-29T20:18:40.806Z,15.08
2023-04-29T20:21:07.321Z,15.09
2023-04-29T20:23:33.802Z,15.07
2023-04-29T20:26:01.341Z,15.09
2023-04-29T20:28:27.919Z,15.09
2023-04-29T20:30:56.736Z,15.09
2023-04-29T20:33:23.221Z,15.07
2023-04-29T20:35:49.731Z,15.07
2023-04-29T20:38:16.221Z,15.04
2023-04-29T20:40:43.563Z,15.04
2023-04-29T20:43:10.696Z,15.03
2023-04-29T20:45:37.758Z,15.03
2023-04-29T20:48:05.615Z,15.01
2023-04-29T20:50:32.174Z,15.02
2023-04-29T20:52:58.688Z,14.99
2023-04-29T20:55:25.261Z,14.97
2023-04-29T20:57:51.753Z,14.97
2023-04-29T21:00:18.387Z,14.96
2023-04-29T21:02:45.179Z,14.95
2023-04-29T21:05:11.748Z,14.94
2023-04-29T21:07:38.366Z,14.93
2023-04-29T21:10:05.109Z,14.93
2023-04-29T21:12:31.620Z,14.95
2023-04-29T21:14:58.088Z,14.94
2023-04-29T21:17:24.597Z,14.95
2023-04-29T21:19:51.078Z,14.98
2023-04-29T21:22:17.565Z,14.98
2023-04-29T21:24:44.155Z,15.00
2023-04-29T21:27:10.641Z,14.92
2023-04-29T21:29:40.788Z,14.98
2023-04-29T21:32:08.247Z,15.01
2023-04-29T21:34:35.966Z,15.01
2023-04-29T21:37:02.512Z,15.03
2023-04-29T21:39:31.356Z,15.02
2023-04-29T21:42:00.117Z,15.03
2023-04-29T21:44:26.731Z,15.06
2023-04-29T21:46:53.567Z,15.06
2023-04-29T21:49:20.701Z,15.04
2023-04-29T21:51:47.357Z,15.04
2023-04-29T21:54:13.825Z,15.03
2023-04-29T21:56:40.347Z,15.02
2023-04-29T21:59:06.864Z,15.03
2023-04-29T22:01:45.645Z,15.01
2023-04-29T22:04:12.277Z,15.00
2023-04-29T22:06:38.991Z,14.97
2023-04-29T22:09:07.238Z,14.96
2023-04-29T22:11:33.833Z,14.97
2023-04-29T22:14:00.482Z,14.95
2023-04-29T22:16:27.143Z,14.94
2023-04-29T22:18:54.624Z,14.97
2023-04-29T22:21:21.148Z,14.96
2023-04-29T22:23:49.135Z,14.96
2023-04-29T22:26:15.808Z,14.97
2023-04-29T22:28:42.267Z,14.97
2023-04-29T22:31:08.767Z,14.97
2023-04-29T22:33:35.428Z,14.95
2023-04-29T22:36:02.637Z,14.96
2023-04-29T22:38:29.560Z,14.93
2023-04-29T22:40:56.095Z,14.91
2023-04-29T22:43:22.616Z,14.89
2023-04-29T22:45:56.112Z,14.89
2023-04-29T22:48:25.094Z,14.87
2023-04-29T22:50:54.611Z,14.86
2023-04-29T22:53:22.175Z,14.85
2023-04-29T22:55:56.417Z,14.84
2023-04-29T22:58:26.800Z,14.84
2023-04-29T23:00:56.537Z,14.84
2023-04-29T23:03:24.037Z,14.85
2023-04-29T23:05:50.790Z,14.83
2023-04-29T23:08:17.368Z,14.85
2023-04-29T23:10:49.394Z,14.84
2023-04-29T23:13:16.555Z,14.82
2023-04-29T23:15:43.277Z,14.83
2023-04-29T23:18:09.950Z,14.81
2023-04-29T23:20:36.559Z,14.82
2023-04-29T23:23:03.040Z,14.82
2023-04-29T23:25:29.584Z,14.84
2023-04-29T23:27:56.153Z,14.83
2023-04-29T23:30:22.787Z,14.84
2023-04-29T23:32:49.276Z,14.83
2023-04-29T23:35:15.904Z,14.81
2023-04-29T23:37:42.438Z,14.79
2023-04-29T23:40:09.281Z,14.80
2023-04-29T23:42:35.747Z,14.80
2023-04-29T23:45:02.255Z,14.80
2023-04-29T23:47:28.809Z,14.79
2023-04-29T23:49:55.682Z,14.78
2023-04-29T23:52:22.645Z,14.77
2023-04-29T23:54:49.173Z,14.79
2023-04-29T23:57:15.873Z,14.78
2023-04-29T23:59:42.562Z,14.78
